createdAt,value
2022-12-08T00:09:02.633Z,-1.26
2022-12-08T00:19:03.036Z,-1.44
2022-12-08T00:29:03.084Z,-2.41
2022-12-08T00:39:03.833Z,-2.24
2022-12-08T00:49:03.468Z,-2.24
2022-12-08T00:59:05.437Z,-2.41
2022-12-08T01:09:03.890Z,-2.24
2022-12-08T01:19:05.597Z,-2.24
2022-12-08T01:29:04.240Z,-2.07
2022-12-08T01:39:06.811Z,-2.07
2022-12-08T01:49:04.632Z,-2.07
2022-12-08T01:59:05.055Z,-2.87
2022-12-08T02:09:05.105Z,-1.90
2022-12-08T02:19:30.295Z,-2.87
2022-12-08T02:29:06.614Z,-3.04
2022-12-08T02:39:05.941Z,-2.87
2022-12-08T02:49:05.988Z,-2.87
2022-12-08T02:59:06.322Z,-2.87
2022-12-08T03:09:06.347Z,-2.87
2022-12-08T03:19:06.680Z,-2.87
2022-12-08T03:29:06.718Z,-2.87
2022-12-08T03:39:07.064Z,-3.04
2022-12-08T03:49:07.093Z,-3.04
2022-12-08T03:59:07.526Z,-3.04
2022-12-08T04:09:07.656Z,-3.04
2022-12-08T04:19:07.894Z,-3.04
2022-12-08T04:29:07.935Z,-3.04
2022-12-08T04:39:08.265Z,-3.04
2022-12-08T04:49:08.305Z,-2.87
2022-12-08T04:59:08.537Z,-2.87
2022-12-08T05:09:08.567Z,-2.87
2022-12-08T05:19:09.265Z,-3.04
2022-12-08T05:29:08.892Z,-2.87
2022-12-08T05:39:11.630Z,-2.87
2022-12-08T05:49:09.263Z,-2.87
2022-12-08T05:59:09.657Z,-3.04
2022-12-08T06:09:09.693Z,-3.04
2022-12-08T06:19:10.015Z,-2.87
2022-12-08T06:29:10.039Z,-2.87
2022-12-08T06:39:10.356Z,-2.71
2022-12-08T06:49:10.378Z,-2.54
2022-12-08T06:59:10.757Z,-2.54
2022-12-08T07:09:10.806Z,-2.38
2022-12-08T07:19:12.151Z,-2.38
2022-12-08T07:29:11.186Z,-2.54
2022-12-08T07:39:11.604Z,-2.71
2022-12-08T07:49:11.644Z,-2.54
2022-12-08T07:59:12.081Z,-3.04
2022-12-08T08:09:12.167Z,-3.21
2022-12-08T08:19:12.435Z,-3.21
2022-12-08T08:29:12.671Z,-2.87
2022-12-08T08:39:12.921Z,-3.04
2022-12-08T08:49:13.166Z,-3.04
2022-12-08T08:59:13.506Z,-3.38
2022-12-08T09:09:13.530Z,-2.76
2022-12-08T09:19:13.865Z,-2.15
2022-12-08T09:29:13.887Z,-2.34
2022-12-08T09:39:14.232Z,-2.34
2022-12-08T09:49:14.272Z,-2.52
2022-12-08T09:59:14.509Z,-2.90
2022-12-08T10:09:18.353Z,-2.14
2022-12-08T10:19:15.814Z,-1.99
2022-12-08T10:29:15.106Z,-1.99
2022-12-08T10:39:15.152Z,-1.99
2022-12-08T10:49:15.390Z,-1.99
2022-12-08T10:59:15.615Z,-2.42
2022-12-08T11:09:15.911Z,-2.36
2022-12-08T11:19:16.134Z,-1.91
2022-12-08T11:29:16.460Z,-2.59
2022-12-08T11:39:16.498Z,-2.13
2022-12-08T11:49:16.733Z,-2.13
2022-12-08T11:59:21.768Z,-2.37
2022-12-08T12:09:17.060Z,-1.94
2022-12-08T12:19:17.301Z,-2.13
2022-12-08T12:29:17.530Z,-2.13
2022-12-08T12:39:17.632Z,-2.13
2022-12-08T12:49:17.855Z,-0.96
2022-12-08T12:59:18.033Z,-1.19
2022-12-08T13:09:18.256Z,-2.59
2022-12-08T13:19:18.509Z,-1.65
2022-12-08T13:29:18.748Z,-0.48
2022-12-08T13:39:19.156Z,-0.24
2022-12-08T13:59:20.485Z,-0.74
2022-12-08T14:09:20.855Z,-1.47
2022-12-08T14:19:19.945Z,-1.04
2022-12-08T14:29:20.244Z,-1.04
2022-12-08T14:39:20.304Z,-1.58
2022-12-08T14:49:20.647Z,-1.58
2022-12-08T14:59:20.693Z,-1.38
2022-12-08T15:09:20.946Z,-0.98
2022-12-08T15:19:21.211Z,-0.98
2022-12-08T15:29:21.317Z,-1.56
2022-12-08T15:39:21.355Z,-1.37
2022-12-08T15:49:21.727Z,-1.97
2022-12-08T15:59:21.781Z,-1.79
2022-12-08T16:09:25.262Z,-1.61
2022-12-08T16:19:23.080Z,-1.61
2022-12-08T16:29:22.433Z,-1.44
2022-12-08T16:39:22.562Z,-1.44
2022-12-08T16:49:22.697Z,-2.24
2022-12-08T16:59:22.728Z,-2.07
2022-12-08T17:09:23.095Z,-2.07
2022-12-08T17:19:23.280Z,-2.07
2022-12-08T17:29:23.434Z,-1.73
2022-12-08T17:39:23.479Z,-2.38
2022-12-08T17:49:24.014Z,-2.22
2022-12-08T17:59:24.766Z,-2.38
2022-12-08T18:09:24.418Z,-2.06
2022-12-08T18:19:45.361Z,-2.22
2022-12-08T18:29:24.666Z,-2.22
2022-12-08T18:39:24.860Z,-1.91
2022-12-08T18:49:24.914Z,-2.06
2022-12-08T18:59:25.450Z,-2.07
2022-12-08T19:09:25.392Z,-2.71
2022-12-08T19:19:25.739Z,-2.58
2022-12-08T19:29:25.676Z,-2.76
2022-12-08T19:39:26.164Z,-2.58
2022-12-08T19:49:30.541Z,-2.24
2022-12-08T19:59:26.406Z,-2.87
2022-12-08T20:09:26.753Z,-2.54
2022-12-08T20:19:26.735Z,-2.71
2022-12-08T20:29:26.900Z,-2.87
2022-12-08T20:39:26.939Z,-2.07
2022-12-08T20:49:32.895Z,-2.07
2022-12-08T20:59:28.570Z,-2.87
2022-12-08T21:09:28.023Z,-2.71
2022-12-08T21:19:28.318Z,-2.71
2022-12-08T21:29:28.024Z,-2.71
2022-12-08T21:39:27.908Z,-2.38
2022-12-08T21:49:28.163Z,-2.38
2022-12-08T21:59:28.501Z,-2.54
2022-12-08T22:09:28.717Z,-2.38
2022-12-08T22:19:29.044Z,-2.38
2022-12-08T22:29:28.959Z,-2.38
2022-12-08T22:39:29.238Z,-2.54
2022-12-08T22:49:31.164Z,-3.04
2022-12-08T22:59:29.291Z,-3.04
2022-12-08T23:09:29.456Z,-2.54
2022-12-08T23:19:29.619Z,-2.38
2022-12-08T23:29:29.821Z,-2.54
2022-12-08T23:39:29.852Z,-2.71
2022-12-08T23:49:30.321Z,-2.54
2022-12-08T23:59:30.535Z,-2.38
